Aviation Digital Data Service (ADDS)

Output produced by METARs form (1748 UTC 25 February 2018)
found at http://aviationweather.gov/adds/metars/
 
KIAH 251740Z 2518/2624 04008KT P6SM VCTS SCT007 OVC020CB 
     TEMPO 2518/2520 3SM -RA OVC015 
     FM260000 34006KT 6SM BR VCSH OVC012 
     FM260500 01004KT 3SM BR OVC007 
     FM261500 02008KT P6SM OVC015 
     FM261900 05008KT P6SM SCT015